sensor_id;sensor_type;location;lat;lon;timestamp;P1;durP1;ratioP1;P2;durP2;ratioP2
55254;SDS011;41118;44.634;11.182;2023-04-24T00:00:19;0.45;;;0.10;;
55254;SDS011;41118;44.634;11.182;2023-04-24T00:02:45;1.98;;;0.10;;
55254;SDS011;41118;44.634;11.182;2023-04-24T00:05:12;5.78;;;0.10;;
55254;SDS011;41118;44.634;11.182;2023-04-24T00:07:39;0.40;;;0.10;;
55254;SDS011;41118;44.634;11.182;2023-04-24T00:10:06;3.83;;;0.10;;
55254;SDS011;41118;44.634;11.182;2023-04-24T00:12:33;1.75;;;0.10;;
55254;SDS011;41118;44.634;11.182;2023-04-24T00:14:59;0.57;;;0.10;;
55254;SDS011;41118;44.634;11.182;2023-04-24T00:17:25;2.25;;;0.10;;
55254;SDS011;41118;44.634;11.182;2023-04-24T00:19:51;0.40;;;0.10;;
55254;SDS011;41118;44.634;11.182;2023-04-24T00:22:23;0.50;;;0.05;;
55254;SDS011;41118;44.634;11.182;2023-04-24T00:24:49;1.05;;;0.10;;
55254;SDS011;41118;44.634;11.182;2023-04-24T00:27:16;0.80;;;0.10;;
55254;SDS011;41118;44.634;11.182;2023-04-24T00:29:43;0.47;;;0.10;;
55254;SDS011;41118;44.634;11.182;2023-04-24T00:32:09;1.13;;;0.10;;
55254;SDS011;41118;44.634;11.182;2023-04-24T00:34:35;2.30;;;0.10;;
55254;SDS011;41118;44.634;11.182;2023-04-24T00:37:01;0.60;;;0.10;;
55254;SDS011;41118;44.634;11.182;2023-04-24T00:39:27;2.30;;;0.10;;
55254;SDS011;41118;44.634;11.182;2023-04-24T00:41:54;0.80;;;0.10;;
55254;SDS011;41118;44.634;11.182;2023-04-24T00:44:21;0.77;;;0.10;;
55254;SDS011;41118;44.634;11.182;2023-04-24T00:46:48;2.70;;;0.10;;
55254;SDS011;41118;44.634;11.182;2023-04-24T00:49:20;5.88;;;0.47;;
55254;SDS011;41118;44.634;11.182;2023-04-24T00:51:46;1.40;;;0.10;;
55254;SDS011;41118;44.634;11.182;2023-04-24T00:54:14;6.38;;;0.10;;
55254;SDS011;41118;44.634;11.182;2023-04-24T00:56:40;1.52;;;0.10;;
55254;SDS011;41118;44.634;11.182;2023-04-24T00:59:07;2.58;;;0.10;;
55254;SDS011;41118;44.634;11.182;2023-04-24T01:01:33;3.13;;;0.10;;
55254;SDS011;41118;44.634;11.182;2023-04-24T01:03:59;3.03;;;0.10;;
55254;SDS011;41118;44.634;11.182;2023-04-24T01:06:29;2.47;;;0.20;;
55254;SDS011;41118;44.634;11.182;2023-04-24T01:08:56;0.35;;;0.10;;
55254;SDS011;41118;44.634;11.182;2023-04-24T01:11:23;2.15;;;0.10;;
55254;SDS011;41118;44.634;11.182;2023-04-24T01:13:51;1.63;;;0.10;;
55254;SDS011;41118;44.634;11.182;2023-04-24T01:16:17;0.70;;;0.10;;
55254;SDS011;41118;44.634;11.182;2023-04-24T01:18:45;0.95;;;0.10;;
55254;SDS011;41118;44.634;11.182;2023-04-24T01:21:12;2.15;;;0.10;;
55254;SDS011;41118;44.634;11.182;2023-04-24T01:23:38;0.60;;;0.20;;
55254;SDS011;41118;44.634;11.182;2023-04-24T01:26:05;1.33;;;0.10;;
55254;SDS011;41118;44.634;11.182;2023-04-24T01:28:31;0.35;;;0.10;;
55254;SDS011;41118;44.634;11.182;2023-04-24T01:30:57;0.40;;;0.10;;
55254;SDS011;41118;44.634;11.182;2023-04-24T01:33:24;0.75;;;0.10;;
55254;SDS011;41118;44.634;11.182;2023-04-24T01:35:51;1.13;;;0.10;;
55254;SDS011;41118;44.634;11.182;2023-04-24T01:38:17;2.63;;;0.15;;
55254;SDS011;41118;44.634;11.182;2023-04-24T01:40:44;0.52;;;0.10;;
55254;SDS011;41118;44.634;11.182;2023-04-24T01:43:10;0.60;;;0.10;;
55254;SDS011;41118;44.634;11.182;2023-04-24T01:45:37;0.43;;;0.10;;
55254;SDS011;41118;44.634;11.182;2023-04-24T01:48:03;1.05;;;0.10;;
55254;SDS011;41118;44.634;11.182;2023-04-24T01:50:30;1.50;;;0.10;;
55254;SDS011;41118;44.634;11.182;2023-04-24T01:52:56;0.73;;;0.10;;
55254;SDS011;41118;44.634;11.182;2023-04-24T01:55:22;1.17;;;0.10;;
55254;SDS011;41118;44.634;11.182;2023-04-24T01:57:49;1.23;;;0.10;;
55254;SDS011;41118;44.634;11.182;2023-04-24T02:00:15;0.45;;;0.10;;
55254;SDS011;41118;44.634;11.182;2023-04-24T02:02:42;0.47;;;0.10;;
55254;SDS011;41118;44.634;11.182;2023-04-24T02:05:08;0.88;;;0.10;;
55254;SDS011;41118;44.634;11.182;2023-04-24T02:07:34;1.73;;;0.10;;
55254;SDS011;41118;44.634;11.182;2023-04-24T02:10:01;2.25;;;0.10;;
55254;SDS011;41118;44.634;11.182;2023-04-24T02:12:27;1.05;;;0.63;;
55254;SDS011;41118;44.634;11.182;2023-04-24T02:14:53;3.83;;;0.20;;
55254;SDS011;41118;44.634;11.182;2023-04-24T02:17:19;1.52;;;0.20;;
55254;SDS011;41118;44.634;11.182;2023-04-24T02:19:45;0.43;;;0.10;;
55254;SDS011;41118;44.634;11.182;2023-04-24T02:22:11;2.30;;;0.20;;
55254;SDS011;41118;44.634;11.182;2023-04-24T02:24:38;1.23;;;0.10;;
55254;SDS011;41118;44.634;11.182;2023-04-24T02:27:04;0.98;;;0.20;;
55254;SDS011;41118;44.634;11.182;2023-04-24T02:29:30;3.58;;;0.20;;
55254;SDS011;41118;44.634;11.182;2023-04-24T02:31:56;5.13;;;0.20;;
55254;SDS011;41118;44.634;11.182;2023-04-24T02:34:22;2.30;;;0.20;;
55254;SDS011;41118;44.634;11.182;2023-04-24T02:36:48;1.17;;;0.20;;
55254;SDS011;41118;44.634;11.182;2023-04-24T02:39:15;1.52;;;0.20;;
55254;SDS011;41118;44.634;11.182;2023-04-24T02:41:41;1.55;;;0.20;;
55254;SDS011;41118;44.634;11.182;2023-04-24T02:44:08;1.77;;;0.20;;
55254;SDS011;41118;44.634;11.182;2023-04-24T02:46:34;1.42;;;0.32;;
55254;SDS011;41118;44.634;11.182;2023-04-24T02:49:00;0.80;;;0.15;;
55254;SDS011;41118;44.634;11.182;2023-04-24T02:51:27;1.52;;;0.17;;
55254;SDS011;41118;44.634;11.182;2023-04-24T02:53:53;0.70;;;0.17;;
55254;SDS011;41118;44.634;11.182;2023-04-24T02:56:19;0.50;;;0.10;;
55254;SDS011;41118;44.634;11.182;2023-04-24T02:58:45;1.13;;;0.17;;
55254;SDS011;41118;44.634;11.182;2023-04-24T03:01:12;0.70;;;0.20;;
55254;SDS011;41118;44.634;11.182;2023-04-24T03:03:38;1.58;;;0.17;;
55254;SDS011;41118;44.634;11.182;2023-04-24T03:06:04;0.73;;;0.20;;
55254;SDS011;41118;44.634;11.182;2023-04-24T03:08:33;1.65;;;0.52;;
55254;SDS011;41118;44.634;11.182;2023-04-24T03:10:59;0.82;;;0.20;;
55254;SDS011;41118;44.634;11.182;2023-04-24T03:13:26;0.85;;;0.17;;
55254;SDS011;41118;44.634;11.182;2023-04-24T03:15:52;0.85;;;0.20;;
55254;SDS011;41118;44.634;11.182;2023-04-24T03:18:19;2.35;;;0.20;;
55254;SDS011;41118;44.634;11.182;2023-04-24T03:20:45;1.13;;;0.20;;
55254;SDS011;41118;44.634;11.182;2023-04-24T03:23:12;1.98;;;0.17;;
55254;SDS011;41118;44.634;11.182;2023-04-24T03:25:38;0.90;;;0.20;;
55254;SDS011;41118;44.634;11.182;2023-04-24T03:28:04;0.43;;;0.13;;
55254;SDS011;41118;44.634;11.182;2023-04-24T03:30:30;1.50;;;0.20;;
55254;SDS011;41118;44.634;11.182;2023-04-24T03:32:56;1.17;;;0.20;;
55254;SDS011;41118;44.634;11.182;2023-04-24T03:35:22;1.02;;;0.20;;
55254;SDS011;41118;44.634;11.182;2023-04-24T03:37:49;1.00;;;0.10;;
55254;SDS011;41118;44.634;11.182;2023-04-24T03:40:15;1.95;;;0.15;;
55254;SDS011;41118;44.634;11.182;2023-04-24T03:42:42;2.63;;;0.50;;
55254;SDS011;41118;44.634;11.182;2023-04-24T03:45:08;1.52;;;0.20;;
55254;SDS011;41118;44.634;11.182;2023-04-24T03:47:34;0.80;;;0.30;;
55254;SDS011;41118;44.634;11.182;2023-04-24T03:50:01;0.88;;;0.20;;
55254;SDS011;41118;44.634;11.182;2023-04-24T03:52:27;0.70;;;0.20;;
55254;SDS011;41118;44.634;11.182;2023-04-24T03:54:53;2.28;;;0.20;;
55254;SDS011;41118;44.634;11.182;2023-04-24T03:57:20;5.38;;;0.20;;
55254;SDS011;41118;44.634;11.182;2023-04-24T03:59:46;0.47;;;0.20;;
55254;SDS011;41118;44.634;11.182;2023-04-24T04:02:13;1.98;;;0.20;;
55254;SDS011;41118;44.634;11.182;2023-04-24T04:04:39;1.80;;;0.45;;
55254;SDS011;41118;44.634;11.182;2023-04-24T04:07:05;1.27;;;0.30;;
55254;SDS011;41118;44.634;11.182;2023-04-24T04:09:32;1.92;;;0.43;;
55254;SDS011;41118;44.634;11.182;2023-04-24T04:11:58;1.08;;;0.20;;
55254;SDS011;41118;44.634;11.182;2023-04-24T04:14:25;1.50;;;0.20;;
55254;SDS011;41118;44.634;11.182;2023-04-24T04:16:52;3.10;;;0.20;;
55254;SDS011;41118;44.634;11.182;2023-04-24T04:19:18;1.42;;;0.20;;
55254;SDS011;41118;44.634;11.182;2023-04-24T04:21:44;0.80;;;0.20;;
55254;SDS011;41118;44.634;11.182;2023-04-24T04:24:10;2.50;;;0.30;;
55254;SDS011;41118;44.634;11.182;2023-04-24T04:26:37;0.85;;;0.25;;
55254;SDS011;41118;44.634;11.182;2023-04-24T04:29:04;1.60;;;0.30;;
55254;SDS011;41118;44.634;11.182;2023-04-24T04:31:31;1.60;;;0.30;;
55254;SDS011;41118;44.634;11.182;2023-04-24T04:33:57;1.02;;;0.35;;
55254;SDS011;41118;44.634;11.182;2023-04-24T04:36:23;1.45;;;0.40;;
55254;SDS011;41118;44.634;11.182;2023-04-24T04:38:50;0.98;;;0.30;;
55254;SDS011;41118;44.634;11.182;2023-04-24T04:41:17;1.25;;;0.30;;
55254;SDS011;41118;44.634;11.182;2023-04-24T04:43:43;0.95;;;0.30;;
55254;SDS011;41118;44.634;11.182;2023-04-24T04:46:09;1.55;;;0.30;;
55254;SDS011;41118;44.634;11.182;2023-04-24T04:48:36;1.35;;;0.30;;
55254;SDS011;41118;44.634;11.182;2023-04-24T04:51:02;2.45;;;0.30;;
55254;SDS011;41118;44.634;11.182;2023-04-24T04:53:29;6.63;;;0.30;;
55254;SDS011;41118;44.634;11.182;2023-04-24T04:55:55;1.35;;;0.40;;
55254;SDS011;41118;44.634;11.182;2023-04-24T04:58:21;1.23;;;0.35;;
55254;SDS011;41118;44.634;11.182;2023-04-24T05:00:47;7.28;;;0.43;;
55254;SDS011;41118;44.634;11.182;2023-04-24T05:03:13;2.83;;;0.40;;
55254;SDS011;41118;44.634;11.182;2023-04-24T05:05:39;1.42;;;0.40;;
55254;SDS011;41118;44.634;11.182;2023-04-24T05:08:06;3.83;;;0.30;;
55254;SDS011;41118;44.634;11.182;2023-04-24T05:10:32;2.17;;;0.40;;
55254;SDS011;41118;44.634;11.182;2023-04-24T05:12:59;2.72;;;0.70;;
55254;SDS011;41118;44.634;11.182;2023-04-24T05:15:26;2.95;;;0.50;;
55254;SDS011;41118;44.634;11.182;2023-04-24T05:17:52;4.97;;;0.50;;
55254;SDS011;41118;44.634;11.182;2023-04-24T05:20:18;2.80;;;1.08;;
55254;SDS011;41118;44.634;11.182;2023-04-24T05:22:44;3.88;;;0.60;;
55254;SDS011;41118;44.634;11.182;2023-04-24T05:25:10;1.80;;;0.50;;
55254;SDS011;41118;44.634;11.182;2023-04-24T05:27:37;1.77;;;0.50;;
55254;SDS011;41118;44.634;11.182;2023-04-24T05:30:03;2.97;;;0.80;;
55254;SDS011;41118;44.634;11.182;2023-04-24T05:32:30;2.60;;;1.60;;
55254;SDS011;41118;44.634;11.182;2023-04-24T05:34:56;3.53;;;0.68;;
55254;SDS011;41118;44.634;11.182;2023-04-24T05:37:22;3.08;;;0.50;;
55254;SDS011;41118;44.634;11.182;2023-04-24T05:39:48;2.55;;;0.60;;
55254;SDS011;41118;44.634;11.182;2023-04-24T05:42:14;3.45;;;0.80;;
55254;SDS011;41118;44.634;11.182;2023-04-24T05:44:40;2.95;;;0.70;;
55254;SDS011;41118;44.634;11.182;2023-04-24T05:47:06;3.58;;;0.93;;
55254;SDS011;41118;44.634;11.182;2023-04-24T05:49:33;4.45;;;0.70;;
55254;SDS011;41118;44.634;11.182;2023-04-24T05:51:59;7.53;;;1.27;;
55254;SDS011;41118;44.634;11.182;2023-04-24T05:54:25;6.35;;;1.65;;
55254;SDS011;41118;44.634;11.182;2023-04-24T05:56:51;7.78;;;1.40;;
55254;SDS011;41118;44.634;11.182;2023-04-24T05:59:19;7.53;;;2.13;;
55254;SDS011;41118;44.634;11.182;2023-04-24T06:01:45;4.68;;;1.15;;
55254;SDS011;41118;44.634;11.182;2023-04-24T06:04:11;7.60;;;2.40;;
55254;SDS011;41118;44.634;11.182;2023-04-24T06:06:38;6.32;;;1.95;;
55254;SDS011;41118;44.634;11.182;2023-04-24T06:09:05;4.40;;;1.45;;
55254;SDS011;41118;44.634;11.182;2023-04-24T06:11:31;4.47;;;1.52;;
55254;SDS011;41118;44.634;11.182;2023-04-24T06:13:58;4.00;;;0.93;;
55254;SDS011;41118;44.634;11.182;2023-04-24T06:16:24;6.75;;;1.10;;
55254;SDS011;41118;44.634;11.182;2023-04-24T06:18:51;7.55;;;1.30;;
55254;SDS011;41118;44.634;11.182;2023-04-24T06:21:17;3.00;;;1.80;;
55254;SDS011;41118;44.634;11.182;2023-04-24T06:23:43;7.93;;;3.05;;
55254;SDS011;41118;44.634;11.182;2023-04-24T06:26:11;4.88;;;1.25;;
55254;SDS011;41118;44.634;11.182;2023-04-24T06:28:37;7.35;;;1.90;;
55254;SDS011;41118;44.634;11.182;2023-04-24T06:31:03;4.68;;;2.35;;
55254;SDS011;41118;44.634;11.182;2023-04-24T06:33:30;4.57;;;1.40;;
55254;SDS011;41118;44.634;11.182;2023-04-24T06:35:56;5.80;;;1.60;;
55254;SDS011;41118;44.634;11.182;2023-04-24T06:38:22;5.32;;;1.20;;
55254;SDS011;41118;44.634;11.182;2023-04-24T06:40:48;5.53;;;1.88;;
55254;SDS011;41118;44.634;11.182;2023-04-24T06:43:14;5.55;;;2.33;;
55254;SDS011;41118;44.634;11.182;2023-04-24T06:45:40;6.10;;;2.58;;
55254;SDS011;41118;44.634;11.182;2023-04-24T06:48:08;7.80;;;1.98;;
55254;SDS011;41118;44.634;11.182;2023-04-24T06:50:34;4.80;;;1.35;;
55254;SDS011;41118;44.634;11.182;2023-04-24T06:53:00;7.40;;;2.30;;
55254;SDS011;41118;44.634;11.182;2023-04-24T06:55:26;5.18;;;1.33;;
55254;SDS011;41118;44.634;11.182;2023-04-24T06:57:52;5.03;;;1.58;;
55254;SDS011;41118;44.634;11.182;2023-04-24T07:00:18;4.05;;;1.90;;
55254;SDS011;41118;44.634;11.182;2023-04-24T07:02:44;7.13;;;2.72;;
55254;SDS011;41118;44.634;11.182;2023-04-24T07:05:10;5.97;;;1.80;;
55254;SDS011;41118;44.634;11.182;2023-04-24T07:07:37;5.95;;;1.35;;
55254;SDS011;41118;44.634;11.182;2023-04-24T07:10:05;5.53;;;1.42;;
55254;SDS011;41118;44.634;11.182;2023-04-24T07:12:31;5.63;;;1.58;;
55254;SDS011;41118;44.634;11.182;2023-04-24T07:14:57;6.63;;;2.50;;
55254;SDS011;41118;44.634;11.182;2023-04-24T07:17:23;9.18;;;0.90;;
55254;SDS011;41118;44.634;11.182;2023-04-24T07:19:49;7.72;;;2.15;;
55254;SDS011;41118;44.634;11.182;2023-04-24T07:22:16;3.63;;;1.17;;
55254;SDS011;41118;44.634;11.182;2023-04-24T07:24:45;9.32;;;3.30;;
55254;SDS011;41118;44.634;11.182;2023-04-24T07:27:11;8.27;;;2.08;;
55254;SDS011;41118;44.634;11.182;2023-04-24T07:29:37;9.55;;;3.33;;
55254;SDS011;41118;44.634;11.182;2023-04-24T07:32:04;4.93;;;2.00;;
55254;SDS011;41118;44.634;11.182;2023-04-24T07:34:31;11.50;;;4.32;;
55254;SDS011;41118;44.634;11.182;2023-04-24T07:36:57;13.13;;;2.97;;
55254;SDS011;41118;44.634;11.182;2023-04-24T07:39:23;8.05;;;3.00;;
55254;SDS011;41118;44.634;11.182;2023-04-24T07:41:49;7.10;;;2.58;;
55254;SDS011;41118;44.634;11.182;2023-04-24T07:44:15;8.02;;;2.25;;
55254;SDS011;41118;44.634;11.182;2023-04-24T07:46:41;5.63;;;2.10;;
55254;SDS011;41118;44.634;11.182;2023-04-24T07:49:08;5.80;;;1.30;;
55254;SDS011;41118;44.634;11.182;2023-04-24T07:51:34;6.22;;;1.60;;
55254;SDS011;41118;44.634;11.182;2023-04-24T07:54:03;5.20;;;0.90;;
55254;SDS011;41118;44.634;11.182;2023-04-24T07:56:30;3.78;;;1.20;;
55254;SDS011;41118;44.634;11.182;2023-04-24T07:58:57;6.82;;;1.73;;
55254;SDS011;41118;44.634;11.182;2023-04-24T08:01:23;5.22;;;0.82;;
55254;SDS011;41118;44.634;11.182;2023-04-24T08:03:49;4.32;;;1.25;;
55254;SDS011;41118;44.634;11.182;2023-04-24T08:06:15;3.03;;;0.88;;
55254;SDS011;41118;44.634;11.182;2023-04-24T08:08:44;4.25;;;0.82;;
55254;SDS011;41118;44.634;11.182;2023-04-24T08:11:10;3.05;;;1.27;;
55254;SDS011;41118;44.634;11.182;2023-04-24T08:13:36;5.90;;;1.27;;
55254;SDS011;41118;44.634;11.182;2023-04-24T08:16:02;7.10;;;1.17;;
55254;SDS011;41118;44.634;11.182;2023-04-24T08:18:28;4.25;;;0.98;;
55254;SDS011;41118;44.634;11.182;2023-04-24T08:20:55;8.13;;;1.80;;
55254;SDS011;41118;44.634;11.182;2023-04-24T08:23:26;6.60;;;1.80;;
55254;SDS011;41118;44.634;11.182;2023-04-24T08:25:52;3.97;;;0.50;;
55254;SDS011;41118;44.634;11.182;2023-04-24T08:28:18;2.25;;;0.40;;
55254;SDS011;41118;44.634;11.182;2023-04-24T08:30:45;2.83;;;0.50;;
55254;SDS011;41118;44.634;11.182;2023-04-24T08:33:12;2.50;;;0.50;;
55254;SDS011;41118;44.634;11.182;2023-04-24T08:35:38;2.53;;;1.02;;
55254;SDS011;41118;44.634;11.182;2023-04-24T08:38:04;1.50;;;0.45;;
55254;SDS011;41118;44.634;11.182;2023-04-24T08:40:31;2.90;;;0.80;;
55254;SDS011;41118;44.634;11.182;2023-04-24T08:42:59;1.98;;;0.40;;
55254;SDS011;41118;44.634;11.182;2023-04-24T08:45:25;1.75;;;0.40;;
55254;SDS011;41118;44.634;11.182;2023-04-24T08:47:53;1.98;;;0.50;;
55254;SDS011;41118;44.634;11.182;2023-04-24T08:50:22;2.03;;;0.60;;
55254;SDS011;41118;44.634;11.182;2023-04-24T08:52:51;2.00;;;0.50;;
55254;SDS011;41118;44.634;11.182;2023-04-24T08:55:18;1.90;;;0.40;;
55254;SDS011;41118;44.634;11.182;2023-04-24T08:57:45;2.15;;;0.50;;
55254;SDS011;41118;44.634;11.182;2023-04-24T09:00:14;2.10;;;0.40;;
55254;SDS011;41118;44.634;11.182;2023-04-24T09:02:43;1.20;;;0.30;;
55254;SDS011;41118;44.634;11.182;2023-04-24T09:05:10;2.25;;;0.52;;
55254;SDS011;41118;44.634;11.182;2023-04-24T09:07:36;3.60;;;0.30;;
55254;SDS011;41118;44.634;11.182;2023-04-24T09:10:05;1.20;;;0.28;;
55254;SDS011;41118;44.634;11.182;2023-04-24T09:12:32;1.20;;;0.30;;
55254;SDS011;41118;44.634;11.182;2023-04-24T09:14:58;1.08;;;0.38;;
55254;SDS011;41118;44.634;11.182;2023-04-24T09:17:26;2.35;;;0.50;;
55254;SDS011;41118;44.634;11.182;2023-04-24T09:19:53;3.42;;;0.40;;
55254;SDS011;41118;44.634;11.182;2023-04-24T09:22:19;3.83;;;0.45;;
55254;SDS011;41118;44.634;11.182;2023-04-24T09:24:45;1.42;;;0.35;;
55254;SDS011;41118;44.634;11.182;2023-04-24T09:27:11;2.75;;;0.85;;
55254;SDS011;41118;44.634;11.182;2023-04-24T09:29:38;2.45;;;0.45;;
55254;SDS011;41118;44.634;11.182;2023-04-24T09:32:17;3.42;;;0.60;;
55254;SDS011;41118;44.634;11.182;2023-04-24T09:34:46;2.40;;;0.40;;
55254;SDS011;41118;44.634;11.182;2023-04-24T09:37:26;1.95;;;0.70;;
55254;SDS011;41118;44.634;11.182;2023-04-24T09:42:33;2.75;;;0.40;;
55254;SDS011;41118;44.634;11.182;2023-04-24T09:45:00;1.38;;;0.30;;
55254;SDS011;41118;44.634;11.182;2023-04-24T09:47:26;1.85;;;0.40;;
55254;SDS011;41118;44.634;11.182;2023-04-24T09:49:53;2.38;;;0.40;;
55254;SDS011;41118;44.634;11.182;2023-04-24T09:52:23;2.40;;;0.50;;
55254;SDS011;41118;44.634;11.182;2023-04-24T09:54:53;1.20;;;0.30;;
55254;SDS011;41118;44.634;11.182;2023-04-24T09:57:19;1.88;;;0.20;;
55254;SDS011;41118;44.634;11.182;2023-04-24T09:59:46;1.50;;;0.40;;
55254;SDS011;41118;44.634;11.182;2023-04-24T10:02:18;1.77;;;0.20;;
55254;SDS011;41118;44.634;11.182;2023-04-24T10:04:55;0.87;;;0.20;;
55254;SDS011;41118;44.634;11.182;2023-04-24T10:07:21;1.08;;;0.20;;
55254;SDS011;41118;44.634;11.182;2023-04-24T10:09:47;1.23;;;0.30;;
55254;SDS011;41118;44.634;11.182;2023-04-24T10:12:14;1.25;;;0.30;;
55254;SDS011;41118;44.634;11.182;2023-04-24T10:14:40;1.23;;;0.20;;
55254;SDS011;41118;44.634;11.182;2023-04-24T10:17:07;0.90;;;0.30;;
55254;SDS011;41118;44.634;11.182;2023-04-24T10:19:33;2.65;;;0.22;;
55254;SDS011;41118;44.634;11.182;2023-04-24T10:22:00;1.10;;;0.20;;
55254;SDS011;41118;44.634;11.182;2023-04-24T10:24:26;2.38;;;0.30;;
55254;SDS011;41118;44.634;11.182;2023-04-24T10:26:54;2.75;;;0.30;;
55254;SDS011;41118;44.634;11.182;2023-04-24T10:29:21;1.27;;;0.20;;
55254;SDS011;41118;44.634;11.182;2023-04-24T10:31:48;0.88;;;0.20;;
55254;SDS011;41118;44.634;11.182;2023-04-24T10:34:14;1.23;;;0.30;;
55254;SDS011;41118;44.634;11.182;2023-04-24T10:36:48;2.58;;;0.30;;
55254;SDS011;41118;44.634;11.182;2023-04-24T10:41:40;1.67;;;0.30;;
55254;SDS011;41118;44.634;11.182;2023-04-24T10:44:08;0.80;;;0.30;;
55254;SDS011;41118;44.634;11.182;2023-04-24T10:46:35;1.65;;;0.40;;
55254;SDS011;41118;44.634;11.182;2023-04-24T10:49:04;1.88;;;0.28;;
55254;SDS011;41118;44.634;11.182;2023-04-24T10:51:47;1.15;;;0.30;;
55254;SDS011;41118;44.634;11.182;2023-04-24T10:54:27;1.27;;;0.30;;
55254;SDS011;41118;44.634;11.182;2023-04-24T10:56:53;1.70;;;0.30;;
55254;SDS011;41118;44.634;11.182;2023-04-24T10:59:39;2.08;;;0.30;;
55254;SDS011;41118;44.634;11.182;2023-04-24T11:02:06;2.00;;;0.30;;
55254;SDS011;41118;44.634;11.182;2023-04-24T11:04:34;2.55;;;0.25;;
55254;SDS011;41118;44.634;11.182;2023-04-24T11:07:00;1.15;;;0.40;;
55254;SDS011;41118;44.634;11.182;2023-04-24T11:09:32;1.63;;;0.30;;
55254;SDS011;41118;44.634;11.182;2023-04-24T11:12:06;2.75;;;0.30;;
55254;SDS011;41118;44.634;11.182;2023-04-24T11:20:03;1.10;;;0.25;;
55254;SDS011;41118;44.634;11.182;2023-04-24T11:22:33;3.97;;;1.10;;
55254;SDS011;41118;44.634;11.182;2023-04-24T11:25:05;2.42;;;0.30;;
55254;SDS011;41118;44.634;11.182;2023-04-24T11:27:33;1.83;;;0.20;;
55254;SDS011;41118;44.634;11.182;2023-04-24T11:30:04;3.22;;;0.20;;
55254;SDS011;41118;44.634;11.182;2023-04-24T11:35:18;0.50;;;0.20;;
55254;SDS011;41118;44.634;11.182;2023-04-24T11:37:45;2.25;;;0.30;;
55254;SDS011;41118;44.634;11.182;2023-04-24T11:40:13;0.85;;;0.10;;
55254;SDS011;41118;44.634;11.182;2023-04-24T11:42:45;1.02;;;0.13;;
55254;SDS011;41118;44.634;11.182;2023-04-24T11:45:14;2.22;;;0.20;;
55254;SDS011;41118;44.634;11.182;2023-04-24T11:47:40;1.15;;;0.20;;
55254;SDS011;41118;44.634;11.182;2023-04-24T11:50:07;1.42;;;0.20;;
55254;SDS011;41118;44.634;11.182;2023-04-24T11:52:38;0.60;;;0.20;;
55254;SDS011;41118;44.634;11.182;2023-04-24T11:55:05;0.60;;;0.20;;
55254;SDS011;41118;44.634;11.182;2023-04-24T11:57:32;1.27;;;0.20;;
55254;SDS011;41118;44.634;11.182;2023-04-24T12:00:01;4.15;;;0.20;;
55254;SDS011;41118;44.634;11.182;2023-04-24T12:02:27;0.90;;;0.20;;
55254;SDS011;41118;44.634;11.182;2023-04-24T12:04:54;0.98;;;0.20;;
55254;SDS011;41118;44.634;11.182;2023-04-24T12:07:21;1.10;;;0.20;;
55254;SDS011;41118;44.634;11.182;2023-04-24T12:09:48;1.90;;;0.20;;
55254;SDS011;41118;44.634;11.182;2023-04-24T12:12:15;0.73;;;0.20;;
55254;SDS011;41118;44.634;11.182;2023-04-24T12:17:10;0.63;;;0.10;;
55254;SDS011;41118;44.634;11.182;2023-04-24T12:19:36;3.13;;;0.20;;
55254;SDS011;41118;44.634;11.182;2023-04-24T12:22:03;0.85;;;0.15;;
55254;SDS011;41118;44.634;11.182;2023-04-24T12:24:30;1.02;;;0.30;;
55254;SDS011;41118;44.634;11.182;2023-04-24T12:26:56;0.60;;;0.20;;
55254;SDS011;41118;44.634;11.182;2023-04-24T12:29:23;0.77;;;0.20;;
55254;SDS011;41118;44.634;11.182;2023-04-24T12:31:50;2.25;;;0.20;;
55254;SDS011;41118;44.634;11.182;2023-04-24T12:34:19;1.00;;;0.20;;
55254;SDS011;41118;44.634;11.182;2023-04-24T12:36:45;1.83;;;0.20;;
55254;SDS011;41118;44.634;11.182;2023-04-24T12:39:15;0.50;;;0.10;;
55254;SDS011;41118;44.634;11.182;2023-04-24T12:41:54;1.52;;;0.30;;
55254;SDS011;41118;44.634;11.182;2023-04-24T12:46:57;0.60;;;0.10;;
55254;SDS011;41118;44.634;11.182;2023-04-24T12:49:23;0.80;;;0.20;;
55254;SDS011;41118;44.634;11.182;2023-04-24T12:51:49;1.77;;;0.10;;
55254;SDS011;41118;44.634;11.182;2023-04-24T12:54:15;0.57;;;0.10;;
55254;SDS011;41118;44.634;11.182;2023-04-24T12:56:42;0.70;;;0.10;;
55254;SDS011;41118;44.634;11.182;2023-04-24T12:59:08;1.60;;;0.10;;
55254;SDS011;41118;44.634;11.182;2023-04-24T13:01:34;1.98;;;0.20;;
55254;SDS011;41118;44.634;11.182;2023-04-24T13:04:00;0.47;;;0.10;;
55254;SDS011;41118;44.634;11.182;2023-04-24T13:06:26;0.80;;;0.10;;
55254;SDS011;41118;44.634;11.182;2023-04-24T13:08:52;2.70;;;0.20;;
55254;SDS011;41118;44.634;11.182;2023-04-24T13:11:20;0.50;;;0.20;;
55254;SDS011;41118;44.634;11.182;2023-04-24T13:13:47;0.70;;;0.20;;
55254;SDS011;41118;44.634;11.182;2023-04-24T13:16:13;0.57;;;0.20;;
55254;SDS011;41118;44.634;11.182;2023-04-24T13:18:39;0.50;;;0.15;;
55254;SDS011;41118;44.634;11.182;2023-04-24T13:21:05;1.88;;;0.20;;
55254;SDS011;41118;44.634;11.182;2023-04-24T13:23:31;1.42;;;0.30;;
55254;SDS011;41118;44.634;11.182;2023-04-24T13:25:57;1.35;;;0.20;;
55254;SDS011;41118;44.634;11.182;2023-04-24T13:28:26;0.88;;;0.13;;
55254;SDS011;41118;44.634;11.182;2023-04-24T13:30:52;0.55;;;0.20;;
55254;SDS011;41118;44.634;11.182;2023-04-24T13:33:18;0.65;;;0.25;;
55254;SDS011;41118;44.634;11.182;2023-04-24T13:35:44;0.82;;;0.20;;
55254;SDS011;41118;44.634;11.182;2023-04-24T13:38:11;2.83;;;0.20;;
55254;SDS011;41118;44.634;11.182;2023-04-24T13:40:37;1.50;;;0.20;;
55254;SDS011;41118;44.634;11.182;2023-04-24T13:43:03;0.38;;;0.10;;
55254;SDS011;41118;44.634;11.182;2023-04-24T13:45:29;0.55;;;0.10;;
55254;SDS011;41118;44.634;11.182;2023-04-24T13:47:55;0.68;;;0.10;;
55254;SDS011;41118;44.634;11.182;2023-04-24T13:50:22;1.08;;;0.10;;
55254;SDS011;41118;44.634;11.182;2023-04-24T13:52:48;1.10;;;0.10;;
55254;SDS011;41118;44.634;11.182;2023-04-24T13:55:14;0.50;;;0.20;;
55254;SDS011;41118;44.634;11.182;2023-04-24T13:57:40;0.50;;;0.10;;
55254;SDS011;41118;44.634;11.182;2023-04-24T14:00:06;0.80;;;0.20;;
55254;SDS011;41118;44.634;11.182;2023-04-24T14:02:35;1.20;;;0.30;;
55254;SDS011;41118;44.634;11.182;2023-04-24T14:05:01;1.15;;;0.20;;
55254;SDS011;41118;44.634;11.182;2023-04-24T14:07:28;0.60;;;0.13;;
55254;SDS011;41118;44.634;11.182;2023-04-24T14:09:55;0.70;;;0.20;;
55254;SDS011;41118;44.634;11.182;2023-04-24T14:12:21;3.22;;;0.20;;
55254;SDS011;41118;44.634;11.182;2023-04-24T14:14:48;0.57;;;0.10;;
55254;SDS011;41118;44.634;11.182;2023-04-24T14:17:14;2.17;;;0.35;;
55254;SDS011;41118;44.634;11.182;2023-04-24T14:19:40;0.95;;;0.20;;
55254;SDS011;41118;44.634;11.182;2023-04-24T14:22:06;0.60;;;0.10;;
55254;SDS011;41118;44.634;11.182;2023-04-24T14:24:32;1.38;;;0.10;;
55254;SDS011;41118;44.634;11.182;2023-04-24T14:26:58;0.60;;;0.13;;
55254;SDS011;41118;44.634;11.182;2023-04-24T14:29:25;0.35;;;0.10;;
55254;SDS011;41118;44.634;11.182;2023-04-24T14:31:51;0.47;;;0.10;;
55254;SDS011;41118;44.634;11.182;2023-04-24T14:34:17;0.52;;;0.10;;
55254;SDS011;41118;44.634;11.182;2023-04-24T14:36:44;0.50;;;0.10;;
55254;SDS011;41118;44.634;11.182;2023-04-24T14:39:10;0.70;;;0.20;;
55254;SDS011;41118;44.634;11.182;2023-04-24T14:41:36;0.60;;;0.20;;
55254;SDS011;41118;44.634;11.182;2023-04-24T14:44:04;1.05;;;0.20;;
55254;SDS011;41118;44.634;11.182;2023-04-24T14:46:30;0.57;;;0.20;;
55254;SDS011;41118;44.634;11.182;2023-04-24T14:48:56;1.05;;;0.20;;